sensor_id;sensor_type;location;lat;lon;timestamp;temperature;humidity
2825;DHT22;1420;51.324;12.344;2023-12-22T00:02:11;4.50;99.90
2825;DHT22;1420;51.324;12.344;2023-12-22T00:04:38;4.40;99.90
2825;DHT22;1420;51.324;12.344;2023-12-22T00:07:05;4.40;99.90
2825;DHT22;1420;51.324;12.344;2023-12-22T00:09:33;4.40;99.90
2825;DHT22;1420;51.324;12.344;2023-12-22T00:12:01;4.40;99.90
2825;DHT22;1420;51.324;12.344;2023-12-22T00:14:28;4.40;99.90
2825;DHT22;1420;51.324;12.344;2023-12-22T00:16:56;4.50;99.90
2825;DHT22;1420;51.324;12.344;2023-12-22T00:19:23;4.40;99.90
2825;DHT22;1420;51.324;12.344;2023-12-22T00:21:50;4.40;99.90
2825;DHT22;1420;51.324;12.344;2023-12-22T00:24:17;4.40;99.90
2825;DHT22;1420;51.324;12.344;2023-12-22T00:26:44;4.50;99.90
2825;DHT22;1420;51.324;12.344;2023-12-22T00:29:12;4.50;99.90
2825;DHT22;1420;51.324;12.344;2023-12-22T00:31:40;4.50;99.90
2825;DHT22;1420;51.324;12.344;2023-12-22T00:34:08;4.60;99.90
2825;DHT22;1420;51.324;12.344;2023-12-22T00:36:36;4.50;99.90
2825;DHT22;1420;51.324;12.344;2023-12-22T00:39:03;4.60;99.90
2825;DHT22;1420;51.324;12.344;2023-12-22T00:41:30;4.60;99.90
2825;DHT22;1420;51.324;12.344;2023-12-22T00:43:57;4.60;99.90
2825;DHT22;1420;51.324;12.344;2023-12-22T00:46:24;4.60;99.90
2825;DHT22;1420;51.324;12.344;2023-12-22T00:48:51;4.70;99.90
2825;DHT22;1420;51.324;12.344;2023-12-22T00:51:19;4.60;99.90
2825;DHT22;1420;51.324;12.344;2023-12-22T00:53:47;4.60;99.90
2825;DHT22;1420;51.324;12.344;2023-12-22T00:56:14;4.60;99.90
2825;DHT22;1420;51.324;12.344;2023-12-22T00:58:41;4.70;99.90
2825;DHT22;1420;51.324;12.344;2023-12-22T01:01:09;4.70;99.90
2825;DHT22;1420;51.324;12.344;2023-12-22T01:03:37;4.70;99.90
2825;DHT22;1420;51.324;12.344;2023-12-22T01:06:05;4.70;99.90
2825;DHT22;1420;51.324;12.344;2023-12-22T01:08:32;4.70;99.90
2825;DHT22;1420;51.324;12.344;2023-12-22T01:10:59;4.80;99.90
2825;DHT22;1420;51.324;12.344;2023-12-22T01:13:27;4.80;99.90
2825;DHT22;1420;51.324;12.344;2023-12-22T01:15:54;4.80;99.90
2825;DHT22;1420;51.324;12.344;2023-12-22T01:18:21;4.80;99.90
2825;DHT22;1420;51.324;12.344;2023-12-22T01:20:48;4.80;99.90
2825;DHT22;1420;51.324;12.344;2023-12-22T01:23:15;4.80;99.90
2825;DHT22;1420;51.324;12.344;2023-12-22T01:25:43;4.80;99.90
2825;DHT22;1420;51.324;12.344;2023-12-22T01:28:10;4.80;99.90
2825;DHT22;1420;51.324;12.344;2023-12-22T01:30:38;4.80;99.90
2825;DHT22;1420;51.324;12.344;2023-12-22T01:33:05;4.80;99.90
2825;DHT22;1420;51.324;12.344;2023-12-22T01:35:32;4.80;99.90
2825;DHT22;1420;51.324;12.344;2023-12-22T01:37:59;4.90;99.90
2825;DHT22;1420;51.324;12.344;2023-12-22T01:40:27;4.80;99.90
2825;DHT22;1420;51.324;12.344;2023-12-22T01:42:54;4.80;99.90
2825;DHT22;1420;51.324;12.344;2023-12-22T01:45:21;4.80;99.90
2825;DHT22;1420;51.324;12.344;2023-12-22T01:47:48;4.80;99.90
2825;DHT22;1420;51.324;12.344;2023-12-22T01:50:15;4.90;99.90
2825;DHT22;1420;51.324;12.344;2023-12-22T01:52:43;4.90;99.90
2825;DHT22;1420;51.324;12.344;2023-12-22T01:55:11;4.80;99.90
2825;DHT22;1420;51.324;12.344;2023-12-22T01:57:38;4.80;99.90
2825;DHT22;1420;51.324;12.344;2023-12-22T02:00:06;4.80;99.90
2825;DHT22;1420;51.324;12.344;2023-12-22T02:02:33;4.70;99.90
2825;DHT22;1420;51.324;12.344;2023-12-22T02:05:00;4.70;99.90
2825;DHT22;1420;51.324;12.344;2023-12-22T02:07:28;4.60;99.90
2825;DHT22;1420;51.324;12.344;2023-12-22T02:09:55;4.60;99.90
2825;DHT22;1420;51.324;12.344;2023-12-22T02:12:22;4.60;99.90
2825;DHT22;1420;51.324;12.344;2023-12-22T02:14:49;4.50;99.90
2825;DHT22;1420;51.324;12.344;2023-12-22T02:17:24;4.40;99.90
2825;DHT22;1420;51.324;12.344;2023-12-22T02:19:49;4.40;99.90
2825;DHT22;1420;51.324;12.344;2023-12-22T02:22:16;4.30;99.90
2825;DHT22;1420;51.324;12.344;2023-12-22T02:24:44;4.40;99.90
2825;DHT22;1420;51.324;12.344;2023-12-22T02:27:38;4.40;99.90
2825;DHT22;1420;51.324;12.344;2023-12-22T02:30:08;4.40;99.90
2825;DHT22;1420;51.324;12.344;2023-12-22T02:32:36;4.40;99.90
2825;DHT22;1420;51.324;12.344;2023-12-22T02:35:03;4.40;99.90
2825;DHT22;1420;51.324;12.344;2023-12-22T02:37:30;4.40;99.90
2825;DHT22;1420;51.324;12.344;2023-12-22T02:39:57;4.30;99.90
2825;DHT22;1420;51.324;12.344;2023-12-22T02:42:24;4.20;99.90
2825;DHT22;1420;51.324;12.344;2023-12-22T02:44:52;4.20;99.90
2825;DHT22;1420;51.324;12.344;2023-12-22T02:47:19;4.20;99.90
2825;DHT22;1420;51.324;12.344;2023-12-22T02:49:46;4.20;99.90
2825;DHT22;1420;51.324;12.344;2023-12-22T02:52:13;4.20;99.90
2825;DHT22;1420;51.324;12.344;2023-12-22T02:54:40;4.10;99.90
2825;DHT22;1420;51.324;12.344;2023-12-22T02:57:08;4.20;99.90
2825;DHT22;1420;51.324;12.344;2023-12-22T02:59:36;4.30;99.90
2825;DHT22;1420;51.324;12.344;2023-12-22T03:02:03;4.30;99.90
2825;DHT22;1420;51.324;12.344;2023-12-22T03:04:31;4.30;99.90
2825;DHT22;1420;51.324;12.344;2023-12-22T03:06:59;4.30;99.90
2825;DHT22;1420;51.324;12.344;2023-12-22T03:09:26;4.40;99.90
2825;DHT22;1420;51.324;12.344;2023-12-22T03:11:53;4.30;99.90
2825;DHT22;1420;51.324;12.344;2023-12-22T03:14:20;4.30;99.90
2825;DHT22;1420;51.324;12.344;2023-12-22T03:16:47;4.40;99.90
2825;DHT22;1420;51.324;12.344;2023-12-22T03:19:15;4.40;99.90
2825;DHT22;1420;51.324;12.344;2023-12-22T03:21:42;4.40;99.90
2825;DHT22;1420;51.324;12.344;2023-12-22T03:24:09;4.40;99.90
2825;DHT22;1420;51.324;12.344;2023-12-22T03:26:36;4.30;99.90
2825;DHT22;1420;51.324;12.344;2023-12-22T03:29:04;4.30;99.90
2825;DHT22;1420;51.324;12.344;2023-12-22T03:31:32;4.20;99.90
2825;DHT22;1420;51.324;12.344;2023-12-22T03:33:59;4.20;99.90
2825;DHT22;1420;51.324;12.344;2023-12-22T03:36:27;4.20;99.90
2825;DHT22;1420;51.324;12.344;2023-12-22T03:38:55;4.20;99.90
2825;DHT22;1420;51.324;12.344;2023-12-22T03:41:22;4.20;99.90
2825;DHT22;1420;51.324;12.344;2023-12-22T03:43:49;4.20;99.90
2825;DHT22;1420;51.324;12.344;2023-12-22T03:46:16;4.20;99.90
2825;DHT22;1420;51.324;12.344;2023-12-22T03:48:43;4.20;99.90
2825;DHT22;1420;51.324;12.344;2023-12-22T03:51:11;4.20;99.90
2825;DHT22;1420;51.324;12.344;2023-12-22T03:53:38;4.30;99.90
2825;DHT22;1420;51.324;12.344;2023-12-22T03:56:07;4.20;99.90
2825;DHT22;1420;51.324;12.344;2023-12-22T03:58:33;4.20;99.90
2825;DHT22;1420;51.324;12.344;2023-12-22T04:01:00;4.30;99.90
2825;DHT22;1420;51.324;12.344;2023-12-22T04:03:27;4.30;99.90
2825;DHT22;1420;51.324;12.344;2023-12-22T04:05:55;4.20;99.90
2825;DHT22;1420;51.324;12.344;2023-12-22T04:08:22;4.20;99.90
2825;DHT22;1420;51.324;12.344;2023-12-22T04:10:49;4.20;99.90
2825;DHT22;1420;51.324;12.344;2023-12-22T04:13:16;4.20;99.90
2825;DHT22;1420;51.324;12.344;2023-12-22T04:15:43;4.10;99.90
2825;DHT22;1420;51.324;12.344;2023-12-22T04:18:11;4.10;99.90
2825;DHT22;1420;51.324;12.344;2023-12-22T04:20:38;4.10;99.90
2825;DHT22;1420;51.324;12.344;2023-12-22T04:23:05;4.00;99.90
2825;DHT22;1420;51.324;12.344;2023-12-22T04:25:32;4.00;99.90
2825;DHT22;1420;51.324;12.344;2023-12-22T04:27:59;3.90;99.90
2825;DHT22;1420;51.324;12.344;2023-12-22T04:30:27;4.00;99.90
2825;DHT22;1420;51.324;12.344;2023-12-22T04:32:54;4.00;99.90
2825;DHT22;1420;51.324;12.344;2023-12-22T04:35:21;4.00;99.90
2825;DHT22;1420;51.324;12.344;2023-12-22T04:37:48;3.90;99.90
2825;DHT22;1420;51.324;12.344;2023-12-22T04:40:15;3.80;99.90
2825;DHT22;1420;51.324;12.344;2023-12-22T04:42:43;3.90;99.90
2825;DHT22;1420;51.324;12.344;2023-12-22T04:45:10;3.80;99.90
2825;DHT22;1420;51.324;12.344;2023-12-22T04:47:37;3.90;99.90
2825;DHT22;1420;51.324;12.344;2023-12-22T04:50:05;3.90;99.90
2825;DHT22;1420;51.324;12.344;2023-12-22T04:52:32;3.90;99.90
2825;DHT22;1420;51.324;12.344;2023-12-22T04:55:00;3.90;99.90
2825;DHT22;1420;51.324;12.344;2023-12-22T04:57:28;3.90;99.90
2825;DHT22;1420;51.324;12.344;2023-12-22T04:59:56;3.80;99.90
2825;DHT22;1420;51.324;12.344;2023-12-22T05:02:23;3.70;99.90
2825;DHT22;1420;51.324;12.344;2023-12-22T05:04:50;3.70;99.90
2825;DHT22;1420;51.324;12.344;2023-12-22T05:07:18;3.80;99.90
2825;DHT22;1420;51.324;12.344;2023-12-22T05:09:45;3.90;99.90
2825;DHT22;1420;51.324;12.344;2023-12-22T05:12:12;3.80;99.90
2825;DHT22;1420;51.324;12.344;2023-12-22T05:14:39;3.80;99.90
2825;DHT22;1420;51.324;12.344;2023-12-22T05:17:07;3.80;99.90
2825;DHT22;1420;51.324;12.344;2023-12-22T05:19:34;3.80;99.90
2825;DHT22;1420;51.324;12.344;2023-12-22T05:22:01;3.80;99.90
2825;DHT22;1420;51.324;12.344;2023-12-22T05:24:29;3.70;99.90
2825;DHT22;1420;51.324;12.344;2023-12-22T05:26:56;3.60;99.90
2825;DHT22;1420;51.324;12.344;2023-12-22T05:29:23;3.70;99.90
2825;DHT22;1420;51.324;12.344;2023-12-22T05:31:50;3.70;99.90
2825;DHT22;1420;51.324;12.344;2023-12-22T05:34:18;3.70;99.90
2825;DHT22;1420;51.324;12.344;2023-12-22T05:36:45;3.70;99.90
2825;DHT22;1420;51.324;12.344;2023-12-22T05:39:12;3.80;99.90
2825;DHT22;1420;51.324;12.344;2023-12-22T05:41:39;3.70;99.90
2825;DHT22;1420;51.324;12.344;2023-12-22T05:44:06;3.70;99.90
2825;DHT22;1420;51.324;12.344;2023-12-22T05:46:38;3.70;99.90
2825;DHT22;1420;51.324;12.344;2023-12-22T05:49:06;3.80;99.90
2825;DHT22;1420;51.324;12.344;2023-12-22T05:51:37;3.80;99.90
2825;DHT22;1420;51.324;12.344;2023-12-22T05:54:05;3.80;99.90
2825;DHT22;1420;51.324;12.344;2023-12-22T05:56:31;3.90;99.90
2825;DHT22;1420;51.324;12.344;2023-12-22T05:58:59;3.90;99.90
2825;DHT22;1420;51.324;12.344;2023-12-22T06:01:26;4.00;99.90
2825;DHT22;1420;51.324;12.344;2023-12-22T06:03:53;4.00;99.90
2825;DHT22;1420;51.324;12.344;2023-12-22T06:06:20;4.00;99.90
2825;DHT22;1420;51.324;12.344;2023-12-22T06:08:48;4.10;99.90
2825;DHT22;1420;51.324;12.344;2023-12-22T06:11:16;4.10;99.90
2825;DHT22;1420;51.324;12.344;2023-12-22T06:13:44;4.10;99.90
2825;DHT22;1420;51.324;12.344;2023-12-22T06:16:14;4.00;99.90
2825;DHT22;1420;51.324;12.344;2023-12-22T06:18:41;4.10;99.90
2825;DHT22;1420;51.324;12.344;2023-12-22T06:21:08;4.10;99.90
2825;DHT22;1420;51.324;12.344;2023-12-22T06:23:35;4.20;99.90
2825;DHT22;1420;51.324;12.344;2023-12-22T06:26:07;4.20;99.90
2825;DHT22;1420;51.324;12.344;2023-12-22T06:28:29;4.20;99.90
2825;DHT22;1420;51.324;12.344;2023-12-22T06:30:56;4.10;99.90
2825;DHT22;1420;51.324;12.344;2023-12-22T06:33:24;3.90;99.90
2825;DHT22;1420;51.324;12.344;2023-12-22T06:35:51;3.70;99.90
2825;DHT22;1420;51.324;12.344;2023-12-22T06:38:19;3.70;99.90
2825;DHT22;1420;51.324;12.344;2023-12-22T06:40:47;3.70;99.90
2825;DHT22;1420;51.324;12.344;2023-12-22T06:43:14;3.70;99.90
2825;DHT22;1420;51.324;12.344;2023-12-22T06:45:41;3.80;99.90
2825;DHT22;1420;51.324;12.344;2023-12-22T06:48:08;3.80;99.90
2825;DHT22;1420;51.324;12.344;2023-12-22T06:50:36;3.80;99.90
2825;DHT22;1420;51.324;12.344;2023-12-22T06:53:03;3.70;99.90
2825;DHT22;1420;51.324;12.344;2023-12-22T06:55:30;3.60;99.90
2825;DHT22;1420;51.324;12.344;2023-12-22T06:57:57;3.60;99.90
2825;DHT22;1420;51.324;12.344;2023-12-22T07:00:25;4.50;99.90
2825;DHT22;1420;51.324;12.344;2023-12-22T07:02:53;4.80;99.90
2825;DHT22;1420;51.324;12.344;2023-12-22T07:05:29;4.90;99.90
2825;DHT22;1420;51.324;12.344;2023-12-22T07:07:56;4.90;99.90
2825;DHT22;1420;51.324;12.344;2023-12-22T07:10:23;5.00;99.90
2825;DHT22;1420;51.324;12.344;2023-12-22T07:12:51;5.00;99.90
2825;DHT22;1420;51.324;12.344;2023-12-22T07:15:19;4.70;99.90
2825;DHT22;1420;51.324;12.344;2023-12-22T07:17:46;4.70;99.90
2825;DHT22;1420;51.324;12.344;2023-12-22T07:20:14;4.30;99.90
2825;DHT22;1420;51.324;12.344;2023-12-22T07:22:43;4.20;99.90
2825;DHT22;1420;51.324;12.344;2023-12-22T07:25:08;4.10;99.90
2825;DHT22;1420;51.324;12.344;2023-12-22T07:27:37;4.10;99.90
2825;DHT22;1420;51.324;12.344;2023-12-22T07:30:06;4.00;99.90
2825;DHT22;1420;51.324;12.344;2023-12-22T07:32:33;3.90;99.90
2825;DHT22;1420;51.324;12.344;2023-12-22T07:35:01;4.00;99.90
2825;DHT22;1420;51.324;12.344;2023-12-22T07:37:29;3.90;99.90
2825;DHT22;1420;51.324;12.344;2023-12-22T07:39:56;3.90;99.90
2825;DHT22;1420;51.324;12.344;2023-12-22T07:42:24;3.90;99.90
2825;DHT22;1420;51.324;12.344;2023-12-22T07:44:52;3.90;99.90
2825;DHT22;1420;51.324;12.344;2023-12-22T07:47:20;3.90;99.90
2825;DHT22;1420;51.324;12.344;2023-12-22T07:49:47;3.90;99.90
2825;DHT22;1420;51.324;12.344;2023-12-22T07:52:14;4.00;99.90
2825;DHT22;1420;51.324;12.344;2023-12-22T07:54:41;4.00;99.90
2825;DHT22;1420;51.324;12.344;2023-12-22T07:57:09;4.00;99.90
2825;DHT22;1420;51.324;12.344;2023-12-22T07:59:36;4.00;99.90
2825;DHT22;1420;51.324;12.344;2023-12-22T08:02:03;4.00;99.90
2825;DHT22;1420;51.324;12.344;2023-12-22T08:04:30;4.00;99.90
2825;DHT22;1420;51.324;12.344;2023-12-22T08:06:58;4.10;99.90
2825;DHT22;1420;51.324;12.344;2023-12-22T08:09:25;4.00;99.90
2825;DHT22;1420;51.324;12.344;2023-12-22T08:11:53;4.10;99.90
2825;DHT22;1420;51.324;12.344;2023-12-22T08:14:20;4.20;99.90
2825;DHT22;1420;51.324;12.344;2023-12-22T08:16:47;4.20;99.90
2825;DHT22;1420;51.324;12.344;2023-12-22T08:19:14;4.10;99.90
2825;DHT22;1420;51.324;12.344;2023-12-22T08:21:42;4.10;99.90
2825;DHT22;1420;51.324;12.344;2023-12-22T08:24:10;4.10;99.90
2825;DHT22;1420;51.324;12.344;2023-12-22T08:26:37;4.10;99.90
2825;DHT22;1420;51.324;12.344;2023-12-22T08:29:04;4.20;99.90
2825;DHT22;1420;51.324;12.344;2023-12-22T08:31:31;4.20;99.90
2825;DHT22;1420;51.324;12.344;2023-12-22T08:33:58;4.20;99.90
2825;DHT22;1420;51.324;12.344;2023-12-22T08:36:26;4.20;99.90
2825;DHT22;1420;51.324;12.344;2023-12-22T08:38:54;4.20;99.90
2825;DHT22;1420;51.324;12.344;2023-12-22T08:41:21;4.20;99.90
2825;DHT22;1420;51.324;12.344;2023-12-22T08:43:48;4.20;99.90
2825;DHT22;1420;51.324;12.344;2023-12-22T08:46:15;4.20;99.90
2825;DHT22;1420;51.324;12.344;2023-12-22T08:48:43;4.30;99.90
2825;DHT22;1420;51.324;12.344;2023-12-22T08:51:10;4.30;99.90
2825;DHT22;1420;51.324;12.344;2023-12-22T08:53:37;4.40;99.90
2825;DHT22;1420;51.324;12.344;2023-12-22T08:56:04;4.40;99.90
2825;DHT22;1420;51.324;12.344;2023-12-22T08:58:31;4.50;99.90
2825;DHT22;1420;51.324;12.344;2023-12-22T09:00:59;4.50;99.90
2825;DHT22;1420;51.324;12.344;2023-12-22T09:03:27;4.60;99.90
2825;DHT22;1420;51.324;12.344;2023-12-22T09:05:55;4.30;99.90
2825;DHT22;1420;51.324;12.344;2023-12-22T09:08:22;4.10;99.90
2825;DHT22;1420;51.324;12.344;2023-12-22T09:10:50;4.00;99.90
2825;DHT22;1420;51.324;12.344;2023-12-22T09:13:17;3.90;99.90
2825;DHT22;1420;51.324;12.344;2023-12-22T09:15:44;3.70;99.90
2825;DHT22;1420;51.324;12.344;2023-12-22T09:18:11;3.60;99.90
2825;DHT22;1420;51.324;12.344;2023-12-22T09:20:38;3.40;99.90
2825;DHT22;1420;51.324;12.344;2023-12-22T09:23:06;3.20;99.90
2825;DHT22;1420;51.324;12.344;2023-12-22T09:25:33;3.20;99.90
2825;DHT22;1420;51.324;12.344;2023-12-22T09:28:00;3.30;99.90
2825;DHT22;1420;51.324;12.344;2023-12-22T09:30:27;3.30;99.90
2825;DHT22;1420;51.324;12.344;2023-12-22T09:32:55;3.10;99.90
2825;DHT22;1420;51.324;12.344;2023-12-22T09:35:22;3.00;99.90
2825;DHT22;1420;51.324;12.344;2023-12-22T09:37:50;2.90;99.90
2825;DHT22;1420;51.324;12.344;2023-12-22T09:40:17;2.90;99.90
2825;DHT22;1420;51.324;12.344;2023-12-22T09:42:44;2.70;99.90
2825;DHT22;1420;51.324;12.344;2023-12-22T09:45:11;2.70;99.90
2825;DHT22;1420;51.324;12.344;2023-12-22T09:47:41;2.50;99.90
2825;DHT22;1420;51.324;12.344;2023-12-22T09:50:07;2.40;99.90
2825;DHT22;1420;51.324;12.344;2023-12-22T09:52:35;2.40;99.90
2825;DHT22;1420;51.324;12.344;2023-12-22T09:55:02;2.10;99.90
2825;DHT22;1420;51.324;12.344;2023-12-22T09:57:29;1.90;99.90
2825;DHT22;1420;51.324;12.344;2023-12-22T09:59:56;1.90;99.90
2825;DHT22;1420;51.324;12.344;2023-12-22T10:02:25;2.00;99.90
2825;DHT22;1420;51.324;12.344;2023-12-22T10:04:52;2.10;99.90
2825;DHT22;1420;51.324;12.344;2023-12-22T10:07:20;2.30;99.90
2825;DHT22;1420;51.324;12.344;2023-12-22T10:09:47;2.20;99.90
2825;DHT22;1420;51.324;12.344;2023-12-22T10:12:16;2.40;99.90
2825;DHT22;1420;51.324;12.344;2023-12-22T10:14:43;2.50;99.90
2825;DHT22;1420;51.324;12.344;2023-12-22T10:17:11;2.40;99.90
2825;DHT22;1420;51.324;12.344;2023-12-22T10:19:38;2.50;99.90
2825;DHT22;1420;51.324;12.344;2023-12-22T10:22:05;2.60;99.90
2825;DHT22;1420;51.324;12.344;2023-12-22T10:24:38;2.60;99.90
2825;DHT22;1420;51.324;12.344;2023-12-22T10:27:05;2.70;99.90
2825;DHT22;1420;51.324;12.344;2023-12-22T10:29:31;2.70;99.90
2825;DHT22;1420;51.324;12.344;2023-12-22T10:32:00;2.80;99.90
2825;DHT22;1420;51.324;12.344;2023-12-22T10:34:26;2.90;99.90
2825;DHT22;1420;51.324;12.344;2023-12-22T10:36:53;3.00;99.90
2825;DHT22;1420;51.324;12.344;2023-12-22T10:39:21;3.20;99.90
2825;DHT22;1420;51.324;12.344;2023-12-22T10:41:48;3.10;99.90
2825;DHT22;1420;51.324;12.344;2023-12-22T10:44:15;3.30;99.90
2825;DHT22;1420;51.324;12.344;2023-12-22T10:46:43;3.50;99.90
2825;DHT22;1420;51.324;12.344;2023-12-22T10:49:11;3.50;99.90
2825;DHT22;1420;51.324;12.344;2023-12-22T10:51:38;3.80;99.90
2825;DHT22;1420;51.324;12.344;2023-12-22T10:54:05;4.00;99.90
2825;DHT22;1420;51.324;12.344;2023-12-22T10:56:32;4.20;99.90
2825;DHT22;1420;51.324;12.344;2023-12-22T10:58:59;4.40;99.90
2825;DHT22;1420;51.324;12.344;2023-12-22T11:01:28;4.50;99.90
2825;DHT22;1420;51.324;12.344;2023-12-22T11:03:57;4.80;99.90
2825;DHT22;1420;51.324;12.344;2023-12-22T11:06:23;4.80;99.90
2825;DHT22;1420;51.324;12.344;2023-12-22T11:08:50;4.90;99.90
2825;DHT22;1420;51.324;12.344;2023-12-22T11:11:20;5.00;99.90
2825;DHT22;1420;51.324;12.344;2023-12-22T11:13:44;5.10;99.90
2825;DHT22;1420;51.324;12.344;2023-12-22T11:16:11;5.20;99.90
2825;DHT22;1420;51.324;12.344;2023-12-22T11:18:39;5.40;99.90
2825;DHT22;1420;51.324;12.344;2023-12-22T11:21:06;5.50;99.90
2825;DHT22;1420;51.324;12.344;2023-12-22T11:23:34;5.70;99.90
2825;DHT22;1420;51.324;12.344;2023-12-22T11:26:02;5.80;99.90
2825;DHT22;1420;51.324;12.344;2023-12-22T11:28:29;5.80;99.90
2825;DHT22;1420;51.324;12.344;2023-12-22T11:30:56;5.90;99.90
2825;DHT22;1420;51.324;12.344;2023-12-22T11:33:24;5.90;99.90
2825;DHT22;1420;51.324;12.344;2023-12-22T11:35:51;5.90;99.90
2825;DHT22;1420;51.324;12.344;2023-12-22T11:38:18;5.90;99.90
2825;DHT22;1420;51.324;12.344;2023-12-22T11:40:45;5.90;99.90
2825;DHT22;1420;51.324;12.344;2023-12-22T11:43:13;5.80;99.90
2825;DHT22;1420;51.324;12.344;2023-12-22T11:45:41;5.80;99.90
2825;DHT22;1420;51.324;12.344;2023-12-22T11:48:08;5.70;99.90
2825;DHT22;1420;51.324;12.344;2023-12-22T11:50:36;5.70;99.90
2825;DHT22;1420;51.324;12.344;2023-12-22T12:01:01;5.70;99.90
2825;DHT22;1420;51.324;12.344;2023-12-22T12:03:28;5.70;99.90
2825;DHT22;1420;51.324;12.344;2023-12-22T12:08:35;5.60;99.90
2825;DHT22;1420;51.324;12.344;2023-12-22T12:11:02;5.70;99.90
2825;DHT22;1420;51.324;12.344;2023-12-22T12:13:30;5.70;99.90
2825;DHT22;1420;51.324;12.344;2023-12-22T12:15:59;5.70;99.90
2825;DHT22;1420;51.324;12.344;2023-12-22T12:18:27;5.70;99.90
2825;DHT22;1420;51.324;12.344;2023-12-22T12:20:54;5.60;99.90
2825;DHT22;1420;51.324;12.344;2023-12-22T12:23:23;5.50;99.90
2825;DHT22;1420;51.324;12.344;2023-12-22T12:25:48;5.50;99.90
2825;DHT22;1420;51.324;12.344;2023-12-22T12:28:15;5.40;99.90
2825;DHT22;1420;51.324;12.344;2023-12-22T12:30:42;5.40;99.90
2825;DHT22;1420;51.324;12.344;2023-12-22T12:33:10;5.40;99.90
2825;DHT22;1420;51.324;12.344;2023-12-22T12:35:38;5.30;99.90
2825;DHT22;1420;51.324;12.344;2023-12-22T12:38:05;5.20;99.90
2825;DHT22;1420;51.324;12.344;2023-12-22T12:40:32;5.10;99.90
2825;DHT22;1420;51.324;12.344;2023-12-22T12:42:59;4.80;99.90
2825;DHT22;1420;51.324;12.344;2023-12-22T12:45:27;4.60;99.90
2825;DHT22;1420;51.324;12.344;2023-12-22T12:47:57;4.60;99.90
2825;DHT22;1420;51.324;12.344;2023-12-22T12:50:24;4.50;99.90
2825;DHT22;1420;51.324;12.344;2023-12-22T12:52:52;4.50;99.90
2825;DHT22;1420;51.324;12.344;2023-12-22T12:55:20;4.20;99.90
2825;DHT22;1420;51.324;12.344;2023-12-22T12:57:48;3.40;99.90
2825;DHT22;1420;51.324;12.344;2023-12-22T13:00:31;3.30;99.90
2825;DHT22;1420;51.324;12.344;2023-12-22T13:03:00;3.30;99.90
2825;DHT22;1420;51.324;12.344;2023-12-22T13:05:27;3.20;99.90
2825;DHT22;1420;51.324;12.344;2023-12-22T13:08:05;3.10;99.90
2825;DHT22;1420;51.324;12.344;2023-12-22T13:10:22;3.10;99.90
2825;DHT22;1420;51.324;12.344;2023-12-22T13:12:50;3.10;99.90
2825;DHT22;1420;51.324;12.344;2023-12-22T13:15:17;3.00;99.90
2825;DHT22;1420;51.324;12.344;2023-12-22T13:17:44;2.90;99.90
2825;DHT22;1420;51.324;12.344;2023-12-22T13:20:11;2.80;99.90
2825;DHT22;1420;51.324;12.344;2023-12-22T13:22:39;2.90;99.90
2825;DHT22;1420;51.324;12.344;2023-12-22T13:25:06;2.80;99.90
2825;DHT22;1420;51.324;12.344;2023-12-22T13:27:45;2.70;99.90
2825;DHT22;1420;51.324;12.344;2023-12-22T13:30:14;2.70;99.90
2825;DHT22;1420;51.324;12.344;2023-12-22T13:32:40;2.70;99.90
2825;DHT22;1420;51.324;12.344;2023-12-22T13:35:08;3.00;99.90
2825;DHT22;1420;51.324;12.344;2023-12-22T13:37:40;3.00;99.90
2825;DHT22;1420;51.324;12.344;2023-12-22T13:40:06;3.10;99.90
2825;DHT22;1420;51.324;12.344;2023-12-22T13:42:30;3.10;99.90
2825;DHT22;1420;51.324;12.344;2023-12-22T13:44:58;3.30;99.90
2825;DHT22;1420;51.324;12.344;2023-12-22T13:47:25;3.30;99.90
2825;DHT22;1420;51.324;12.344;2023-12-22T13:49:52;3.40;99.90
2825;DHT22;1420;51.324;12.344;2023-12-22T13:52:25;3.40;99.90
2825;DHT22;1420;51.324;12.344;2023-12-22T13:54:52;3.50;99.90
2825;DHT22;1420;51.324;12.344;2023-12-22T13:57:20;3.50;99.90
2825;DHT22;1420;51.324;12.344;2023-12-22T13:59:46;3.50;99.90
2825;DHT22;1420;51.324;12.344;2023-12-22T14:02:14;3.50;99.90
2825;DHT22;1420;51.324;12.344;2023-12-22T14:04:41;3.60;99.90
2825;DHT22;1420;51.324;12.344;2023-12-22T14:07:08;3.60;99.90
2825;DHT22;1420;51.324;12.344;2023-12-22T14:09:35;3.70;99.90
2825;DHT22;1420;51.324;12.344;2023-12-22T14:12:02;3.80;99.90
2825;DHT22;1420;51.324;12.344;2023-12-22T14:14:30;3.90;99.90
2825;DHT22;1420;51.324;12.344;2023-12-22T14:16:58;4.00;99.90
2825;DHT22;1420;51.324;12.344;2023-12-22T14:19:26;4.10;99.90
2825;DHT22;1420;51.324;12.344;2023-12-22T14:21:53;4.10;99.90
2825;DHT22;1420;51.324;12.344;2023-12-22T14:24:21;4.20;99.90
2825;DHT22;1420;51.324;12.344;2023-12-22T14:26:56;4.10;99.90
2825;DHT22;1420;51.324;12.344;2023-12-22T14:29:23;4.20;99.90
2825;DHT22;1420;51.324;12.344;2023-12-22T14:31:51;4.30;99.90
2825;DHT22;1420;51.324;12.344;2023-12-22T14:34:18;4.30;99.90
2825;DHT22;1420;51.324;12.344;2023-12-22T14:36:45;4.30;99.90
2825;DHT22;1420;51.324;12.344;2023-12-22T14:39:12;4.30;99.90
2825;DHT22;1420;51.324;12.344;2023-12-22T14:41:40;4.30;99.90
2825;DHT22;1420;51.324;12.344;2023-12-22T14:44:06;4.30;99.90
2825;DHT22;1420;51.324;12.344;2023-12-22T14:46:39;4.40;99.90
2825;DHT22;1420;51.324;12.344;2023-12-22T14:49:06;4.40;99.90
2825;DHT22;1420;51.324;12.344;2023-12-22T14:51:36;4.40;99.90
2825;DHT22;1420;51.324;12.344;2023-12-22T14:54:03;4.40;99.90
2825;DHT22;1420;51.324;12.344;2023-12-22T14:56:30;4.40;99.90
2825;DHT22;1420;51.324;12.344;2023-12-22T14:58:57;4.40;99.90
2825;DHT22;1420;51.324;12.344;2023-12-22T15:01:24;4.40;99.90
2825;DHT22;1420;51.324;12.344;2023-12-22T15:03:51;4.40;99.90
2825;DHT22;1420;51.324;12.344;2023-12-22T15:06:18;4.50;99.90
2825;DHT22;1420;51.324;12.344;2023-12-22T15:08:46;4.40;99.90
2825;DHT22;1420;51.324;12.344;2023-12-22T15:11:13;4.50;99.90
2825;DHT22;1420;51.324;12.344;2023-12-22T15:13:40;4.50;99.90
2825;DHT22;1420;51.324;12.344;2023-12-22T15:16:07;4.40;99.90
2825;DHT22;1420;51.324;12.344;2023-12-22T15:18:35;4.50;99.90
2825;DHT22;1420;51.324;12.344;2023-12-22T15:21:03;4.50;99.90
2825;DHT22;1420;51.324;12.344;2023-12-22T15:23:32;4.50;99.90
2825;DHT22;1420;51.324;12.344;2023-12-22T15:26:00;4.50;99.90
2825;DHT22;1420;51.324;12.344;2023-12-22T15:28:27;4.50;99.90
2825;DHT22;1420;51.324;12.344;2023-12-22T15:30:54;4.50;99.90
2825;DHT22;1420;51.324;12.344;2023-12-22T15:33:21;4.50;99.90
2825;DHT22;1420;51.324;12.344;2023-12-22T15:35:53;4.60;99.90
2825;DHT22;1420;51.324;12.344;2023-12-22T15:38:16;4.60;99.90
2825;DHT22;1420;51.324;12.344;2023-12-22T15:40:43;4.50;99.90
2825;DHT22;1420;51.324;12.344;2023-12-22T15:43:10;4.60;99.90
2825;DHT22;1420;51.324;12.344;2023-12-22T15:45:37;4.60;99.90
2825;DHT22;1420;51.324;12.344;2023-12-22T15:48:05;4.70;99.90
2825;DHT22;1420;51.324;12.344;2023-12-22T15:50:34;4.70;99.90
2825;DHT22;1420;51.324;12.344;2023-12-22T15:53:01;4.70;99.90
2825;DHT22;1420;51.324;12.344;2023-12-22T15:55:28;4.60;99.90
2825;DHT22;1420;51.324;12.344;2023-12-22T15:57:55;4.70;99.90
2825;DHT22;1420;51.324;12.344;2023-12-22T16:00:22;4.80;99.90
2825;DHT22;1420;51.324;12.344;2023-12-22T16:02:50;4.70;99.90
2825;DHT22;1420;51.324;12.344;2023-12-22T16:05:17;4.70;99.90
2825;DHT22;1420;51.324;12.344;2023-12-22T16:07:44;4.80;99.90
2825;DHT22;1420;51.324;12.344;2023-12-22T16:10:11;4.80;99.90
2825;DHT22;1420;51.324;12.344;2023-12-22T16:12:39;4.80;99.90
2825;DHT22;1420;51.324;12.344;2023-12-22T16:15:08;4.80;99.90